CEB653 RPLL-RPVA
Flight info
| Callsign | CEB653 |
|---|---|
| Flight time | N/A |
| Altitude | 35000 |
| Route | HARBO1 HARBO DCT IPATA B462 ARREX ARREX2R |
| Aircraft | A320/M-SDE3FGHIRWY/LB1 |
Departure
| Time | N/A |
|---|---|
| Airport | Ninoy Aquino International Airport (RPLL) |
Arrival
| Time | 2026-04-25 05:50 |
|---|---|
| Airport | Daniel Z. Romualdez Airport (RPVA) |
| Time | Latitude | Longitude | Altitude | Speed | Heading |
|---|---|---|---|---|---|
| 2026-04-25 05:13 | 13.28091 | 122.52831 | 32925 ft | 434 kts | 133° |
| 2026-04-25 05:13 | 13.26137 | 122.55222 | 32917 ft | 434 kts | 133° |
| 2026-04-25 05:14 | 13.22219 | 122.60001 | 32910 ft | 434 kts | 133° |
| 2026-04-25 05:15 | 13.16190 | 122.67327 | 32903 ft | 456 kts | 133° |
| 2026-04-25 05:15 | 13.12097 | 122.72302 | 32902 ft | 457 kts | 133° |
| 2026-04-25 05:16 | 13.08000 | 122.77278 | 32902 ft | 456 kts | 132° |
| 2026-04-25 05:16 | 13.03904 | 122.82246 | 32902 ft | 456 kts | 133° |
| 2026-04-25 05:17 | 12.99777 | 122.87247 | 32900 ft | 457 kts | 132° |
| 2026-04-25 05:17 | 12.95677 | 122.92217 | 32900 ft | 458 kts | 132° |
| 2026-04-25 05:18 | 12.91557 | 122.97206 | 32900 ft | 457 kts | 132° |
| 2026-04-25 05:18 | 12.87429 | 123.02188 | 32900 ft | 456 kts | 133° |
| 2026-04-25 05:19 | 12.83290 | 123.07160 | 32897 ft | 455 kts | 132° |
| 2026-04-25 05:19 | 12.79190 | 123.12102 | 32901 ft | 455 kts | 132° |
| 2026-04-25 05:20 | 12.75107 | 123.17031 | 32897 ft | 454 kts | 132° |
| 2026-04-25 05:20 | 12.71026 | 123.21957 | 32898 ft | 454 kts | 132° |
| 2026-04-25 05:21 | 12.66925 | 123.26907 | 32901 ft | 454 kts | 132° |
| 2026-04-25 05:21 | 12.62820 | 123.31859 | 32901 ft | 454 kts | 132° |
| 2026-04-25 05:22 | 12.58756 | 123.36759 | 32899 ft | 454 kts | 132° |
| 2026-04-25 05:22 | 12.54618 | 123.41747 | 32899 ft | 454 kts | 132° |
| 2026-04-25 05:23 | 12.50508 | 123.46697 | 32897 ft | 453 kts | 132° |
| 2026-04-25 05:23 | 12.46415 | 123.51623 | 32900 ft | 452 kts | 132° |
| 2026-04-25 05:24 | 12.42347 | 123.56516 | 32878 ft | 452 kts | 132° |
| 2026-04-25 05:24 | 12.40302 | 123.58974 | 32590 ft | 452 kts | 132° |
| 2026-04-25 05:24 | 12.38263 | 123.61427 | 32327 ft | 452 kts | 132° |
| 2026-04-25 05:24 | 12.36229 | 123.63879 | 32064 ft | 454 kts | 131° |
| 2026-04-25 05:25 | 12.34180 | 123.66399 | 31798 ft | 456 kts | 131° |
| 2026-04-25 05:25 | 12.32155 | 123.68922 | 31534 ft | 458 kts | 131° |
| 2026-04-25 05:25 | 12.30123 | 123.71455 | 31271 ft | 460 kts | 131° |
| 2026-04-25 05:25 | 12.28525 | 123.73440 | 31061 ft | 462 kts | 131° |
| 2026-04-25 05:26 | 12.27849 | 123.74280 | 30974 ft | 462 kts | 131° |
| 2026-04-25 05:26 | 12.25805 | 123.76812 | 30715 ft | 464 kts | 131° |
| 2026-04-25 05:26 | 12.23742 | 123.79364 | 30339 ft | 466 kts | 131° |
| 2026-04-25 05:26 | 12.21662 | 123.81933 | 29767 ft | 468 kts | 131° |
| 2026-04-25 05:27 | 12.19580 | 123.84502 | 29108 ft | 471 kts | 131° |
| 2026-04-25 05:27 | 12.17485 | 123.87084 | 28594 ft | 474 kts | 130° |
| 2026-04-25 05:27 | 12.15370 | 123.89691 | 28081 ft | 476 kts | 130° |
| 2026-04-25 05:27 | 12.13269 | 123.92281 | 27635 ft | 470 kts | 130° |
| 2026-04-25 05:28 | 12.11189 | 123.94843 | 27170 ft | 461 kts | 130° |
| 2026-04-25 05:28 | 12.09163 | 123.97338 | 26731 ft | 452 kts | 130° |
| 2026-04-25 05:28 | 12.07165 | 123.99799 | 26320 ft | 443 kts | 130° |
| 2026-04-25 05:28 | 12.05213 | 124.02200 | 25843 ft | 437 kts | 130° |
| 2026-04-25 05:29 | 12.03277 | 124.04583 | 25354 ft | 432 kts | 130° |
| 2026-04-25 05:29 | 12.01376 | 124.06920 | 24892 ft | 426 kts | 130° |
| 2026-04-25 05:29 | 11.99503 | 124.09222 | 24450 ft | 420 kts | 130° |
| 2026-04-25 05:29 | 11.97646 | 124.11504 | 24012 ft | 414 kts | 130° |
| 2026-04-25 05:30 | 11.95811 | 124.13758 | 23582 ft | 409 kts | 129° |
| 2026-04-25 05:30 | 11.93983 | 124.16003 | 23148 ft | 404 kts | 129° |
| 2026-04-25 05:30 | 11.92199 | 124.18195 | 22723 ft | 399 kts | 129° |
| 2026-04-25 05:30 | 11.90433 | 124.20362 | 22298 ft | 394 kts | 129° |
| 2026-04-25 05:31 | 11.88673 | 124.22517 | 21875 ft | 390 kts | 129° |
| 2026-04-25 05:31 | 11.86926 | 124.24647 | 21415 ft | 387 kts | 129° |
| 2026-04-25 05:31 | 11.85207 | 124.26747 | 20968 ft | 383 kts | 129° |
| 2026-04-25 05:31 | 11.83505 | 124.28835 | 20492 ft | 381 kts | 129° |
| 2026-04-25 05:32 | 11.81808 | 124.30913 | 20027 ft | 379 kts | 129° |
| 2026-04-25 05:32 | 11.80131 | 124.32970 | 19570 ft | 376 kts | 129° |
| 2026-04-25 05:32 | 11.78473 | 124.35004 | 19114 ft | 374 kts | 129° |
| 2026-04-25 05:32 | 11.76817 | 124.37035 | 18660 ft | 372 kts | 129° |
| 2026-04-25 05:33 | 11.75151 | 124.39078 | 18177 ft | 370 kts | 129° |
| 2026-04-25 05:33 | 11.73509 | 124.41092 | 17724 ft | 368 kts | 129° |
| 2026-04-25 05:33 | 11.71875 | 124.43096 | 17278 ft | 366 kts | 129° |
| 2026-04-25 05:33 | 11.70261 | 124.45074 | 16840 ft | 364 kts | 129° |
| 2026-04-25 05:34 | 11.68634 | 124.47069 | 16413 ft | 361 kts | 129° |
| 2026-04-25 05:34 | 11.67024 | 124.49042 | 16005 ft | 358 kts | 129° |
| 2026-04-25 05:34 | 11.65429 | 124.50995 | 15604 ft | 355 kts | 129° |
| 2026-04-25 05:34 | 11.63860 | 124.52918 | 15202 ft | 352 kts | 129° |
| 2026-04-25 05:35 | 11.62275 | 124.54859 | 14799 ft | 349 kts | 129° |
| 2026-04-25 05:35 | 11.60713 | 124.56771 | 14411 ft | 346 kts | 129° |
| 2026-04-25 05:35 | 11.59180 | 124.58649 | 14022 ft | 343 kts | 129° |
| 2026-04-25 05:35 | 11.57654 | 124.60517 | 13629 ft | 340 kts | 129° |
| 2026-04-25 05:36 | 11.56141 | 124.62369 | 13237 ft | 337 kts | 129° |
| 2026-04-25 05:36 | 11.54644 | 124.64201 | 12876 ft | 334 kts | 129° |
| 2026-04-25 05:36 | 11.53161 | 124.66016 | 12477 ft | 331 kts | 129° |
| 2026-04-25 05:36 | 11.51685 | 124.67831 | 12074 ft | 329 kts | 129° |
| 2026-04-25 05:37 | 11.50155 | 124.69530 | 11680 ft | 327 kts | 135° |
| 2026-04-25 05:37 | 11.48414 | 124.71032 | 11276 ft | 325 kts | 142° |
| 2026-04-25 05:37 | 11.46575 | 124.72349 | 10901 ft | 323 kts | 144° |
| 2026-04-25 05:37 | 11.44704 | 124.73640 | 10509 ft | 320 kts | 144° |
| 2026-04-25 05:38 | 11.42844 | 124.74918 | 10130 ft | 317 kts | 144° |
| 2026-04-25 05:38 | 11.41063 | 124.76144 | 10040 ft | 303 kts | 144° |
| 2026-04-25 05:38 | 11.39330 | 124.77341 | 9946 ft | 290 kts | 143° |
| 2026-04-25 05:38 | 11.37658 | 124.78498 | 9625 ft | 287 kts | 143° |
| 2026-04-25 05:39 | 11.36007 | 124.79643 | 9297 ft | 285 kts | 143° |
| 2026-04-25 05:39 | 11.34356 | 124.80788 | 8960 ft | 283 kts | 143° |
| 2026-04-25 05:39 | 11.32737 | 124.81910 | 8646 ft | 281 kts | 143° |
| 2026-04-25 05:39 | 11.31116 | 124.83034 | 8327 ft | 279 kts | 143° |
| 2026-04-25 05:40 | 11.29504 | 124.84151 | 8006 ft | 276 kts | 143° |
| 2026-04-25 05:40 | 11.27922 | 124.85246 | 7693 ft | 275 kts | 143° |
| 2026-04-25 05:40 | 11.26257 | 124.86192 | 7513 ft | 269 kts | 154° |
| 2026-04-25 05:40 | 11.24474 | 124.86774 | 7244 ft | 268 kts | 163° |
| 2026-04-25 05:41 | 11.22652 | 124.87192 | 6955 ft | 266 kts | 165° |
| 2026-04-25 05:41 | 11.20902 | 124.87567 | 6677 ft | 265 kts | 164° |
| 2026-04-25 05:41 | 11.19517 | 124.87864 | 6458 ft | 263 kts | 164° |
| 2026-04-25 05:41 | 11.17771 | 124.88242 | 6176 ft | 261 kts | 163° |
| 2026-04-25 05:42 | 11.15968 | 124.88633 | 5885 ft | 259 kts | 163° |
| 2026-04-25 05:42 | 11.14205 | 124.89023 | 5603 ft | 258 kts | 163° |
| 2026-04-25 05:42 | 11.12450 | 124.89415 | 5321 ft | 256 kts | 163° |
| 2026-04-25 05:42 | 11.10742 | 124.89796 | 5041 ft | 248 kts | 163° |
| 2026-04-25 05:43 | 11.09046 | 124.90175 | 4761 ft | 245 kts | 163° |
| 2026-04-25 05:43 | 11.07387 | 124.90545 | 4492 ft | 242 kts | 163° |
| 2026-04-25 05:43 | 11.05751 | 124.90944 | 4210 ft | 238 kts | 155° |
| 2026-04-25 05:43 | 11.04434 | 124.91844 | 3899 ft | 228 kts | 126° |
| 2026-04-25 05:44 | 11.03725 | 124.93259 | 3620 ft | 220 kts | 99° |
| 2026-04-25 05:44 | 11.03580 | 124.94772 | 3377 ft | 215 kts | 91° |
| 2026-04-25 05:44 | 11.03506 | 124.96285 | 3122 ft | 211 kts | 91° |
| 2026-04-25 05:44 | 11.03427 | 124.97769 | 2880 ft | 208 kts | 92° |
| 2026-04-25 05:45 | 11.03364 | 124.99190 | 2776 ft | 192 kts | 85° |
| 2026-04-25 05:45 | 11.03764 | 125.00430 | 2753 ft | 183 kts | 57° |
| 2026-04-25 05:45 | 11.04668 | 125.01272 | 2717 ft | 172 kts | 33° |
| 2026-04-25 05:45 | 11.05790 | 125.01617 | 2617 ft | 163 kts | 12° |
| 2026-04-25 05:46 | 11.06887 | 125.01708 | 2522 ft | 151 kts | 9° |
| 2026-04-25 05:46 | 11.07943 | 125.01776 | 2451 ft | 150 kts | 9° |
| 2026-04-25 05:46 | 11.08985 | 125.01841 | 2378 ft | 149 kts | 9° |
| 2026-04-25 05:46 | 11.10022 | 125.01907 | 2303 ft | 143 kts | 10° |
| 2026-04-25 05:47 | 11.10988 | 125.01968 | 2155 ft | 138 kts | 10° |
| 2026-04-25 05:47 | 11.11956 | 125.02032 | 1914 ft | 137 kts | 11° |
| 2026-04-25 05:47 | 11.12909 | 125.02097 | 1738 ft | 138 kts | 11° |
| 2026-04-25 05:47 | 11.13873 | 125.02164 | 1558 ft | 138 kts | 11° |
| 2026-04-25 05:48 | 11.14847 | 125.02231 | 1376 ft | 138 kts | 11° |
| 2026-04-25 05:48 | 11.15808 | 125.02296 | 1192 ft | 138 kts | 10° |
| 2026-04-25 05:48 | 11.16782 | 125.02362 | 1009 ft | 138 kts | 9° |
| 2026-04-25 05:48 | 11.17734 | 125.02427 | 825 ft | 138 kts | 9° |
| 2026-04-25 05:49 | 11.18492 | 125.02477 | 681 ft | 138 kts | 9° |
| 2026-04-25 05:49 | 11.19447 | 125.02540 | 501 ft | 137 kts | 8° |
| 2026-04-25 05:49 | 11.20405 | 125.02612 | 322 ft | 136 kts | 10° |
| 2026-04-25 05:49 | 11.21357 | 125.02683 | 139 ft | 137 kts | 8° |
| 2026-04-25 05:50 | 11.22301 | 125.02746 | 17 ft | 126 kts | 4° |
| 2026-04-25 05:50 | 11.23012 | 125.02792 | 18 ft | 76 kts | 6° |
| 2026-04-25 05:50 | 11.23373 | 125.02815 | 17 ft | 28 kts | 4° |
| 2026-04-25 05:50 | 11.23548 | 125.02828 | 17 ft | 21 kts | 5° |
| 2026-04-25 05:51 | 11.23641 | 125.02824 | 17 ft | 10 kts | 335° |
| 2026-04-25 05:51 | 11.23701 | 125.02808 | 17 ft | 5 kts | 3° |
| 2026-04-25 05:51 | 11.23705 | 125.02828 | 17 ft | 4 kts | 140° |
| 2026-04-25 05:51 | 11.23666 | 125.02834 | 17 ft | 6 kts | 180° |
| 2026-04-25 05:52 | 11.23605 | 125.02831 | 17 ft | 9 kts | 184° |
| 2026-04-25 05:52 | 11.23536 | 125.02827 | 17 ft | 10 kts | 184° |
| 2026-04-25 05:52 | 11.23460 | 125.02823 | 17 ft | 11 kts | 182° |
| 2026-04-25 05:52 | 11.23378 | 125.02817 | 17 ft | 12 kts | 187° |
| 2026-04-25 05:53 | 11.23293 | 125.02810 | 18 ft | 12 kts | 184° |
| 2026-04-25 05:53 | 11.23205 | 125.02805 | 18 ft | 12 kts | 182° |
| 2026-04-25 05:53 | 11.23112 | 125.02799 | 18 ft | 13 kts | 187° |
| 2026-04-25 05:53 | 11.23017 | 125.02792 | 18 ft | 13 kts | 182° |
| 2026-04-25 05:54 | 11.22917 | 125.02786 | 18 ft | 14 kts | 184° |
| 2026-04-25 05:54 | 11.22820 | 125.02779 | 18 ft | 9 kts | 184° |
| 2026-04-25 05:54 | 11.22749 | 125.02711 | 19 ft | 5 kts | 244° |
| 2026-04-25 05:55 | 11.22718 | 125.02697 | 19 ft | 5 kts | 189° |
| 2026-04-25 05:55 | 11.22676 | 125.02693 | 19 ft | 5 kts | 184° |
| 2026-04-25 05:55 | 11.22660 | 125.02691 | 19 ft | 0 kts | 216° |
| 2026-04-25 05:55 | 11.22661 | 125.02679 | 19 ft | 2 kts | 293° |
| 2026-04-25 05:56 | 11.22673 | 125.02663 | 20 ft | 1 kts | 311° |
| 2026-04-25 05:56 | 11.22683 | 125.02651 | 19 ft | 0 kts | 311° |